sensor_id;sensor_type;location;lat;lon;timestamp;temperature;humidity
26745;DHT22;14342;50.960;13.880;2023-02-28T00:00:59;5.10;99.90
26745;DHT22;14342;50.960;13.880;2023-02-28T00:02:01;5.30;99.90
26745;DHT22;14342;50.960;13.880;2023-02-28T00:03:02;5.10;99.90
26745;DHT22;14342;50.960;13.880;2023-02-28T00:04:03;5.00;99.90
26745;DHT22;14342;50.960;13.880;2023-02-28T00:05:05;5.00;99.90
26745;DHT22;14342;50.960;13.880;2023-02-28T00:06:06;4.90;99.90
26745;DHT22;14342;50.960;13.880;2023-02-28T00:07:10;4.90;99.90
26745;DHT22;14342;50.960;13.880;2023-02-28T00:08:11;5.00;99.90
26745;DHT22;14342;50.960;13.880;2023-02-28T00:09:13;5.00;99.90
26745;DHT22;14342;50.960;13.880;2023-02-28T00:10:17;5.10;99.90
26745;DHT22;14342;50.960;13.880;2023-02-28T00:11:20;5.10;99.90
26745;DHT22;14342;50.960;13.880;2023-02-28T00:12:22;5.10;99.90
26745;DHT22;14342;50.960;13.880;2023-02-28T00:13:23;5.10;99.90
26745;DHT22;14342;50.960;13.880;2023-02-28T00:14:24;5.00;99.90
26745;DHT22;14342;50.960;13.880;2023-02-28T00:15:25;4.90;99.90
26745;DHT22;14342;50.960;13.880;2023-02-28T00:16:27;4.80;99.90
26745;DHT22;14342;50.960;13.880;2023-02-28T00:17:27;4.70;99.90
26745;DHT22;14342;50.960;13.880;2023-02-28T00:18:29;4.70;99.90
26745;DHT22;14342;50.960;13.880;2023-02-28T00:19:29;4.70;99.90
26745;DHT22;14342;50.960;13.880;2023-02-28T00:20:31;4.70;99.90
26745;DHT22;14342;50.960;13.880;2023-02-28T00:21:31;4.60;99.90
26745;DHT22;14342;50.960;13.880;2023-02-28T00:22:34;4.60;99.90
26745;DHT22;14342;50.960;13.880;2023-02-28T00:23:35;4.60;99.90
26745;DHT22;14342;50.960;13.880;2023-02-28T00:24:36;4.70;99.90
26745;DHT22;14342;50.960;13.880;2023-02-28T00:25:37;4.80;99.90
26745;DHT22;14342;50.960;13.880;2023-02-28T00:26:38;4.80;99.90
26745;DHT22;14342;50.960;13.880;2023-02-28T00:27:39;5.00;99.90
26745;DHT22;14342;50.960;13.880;2023-02-28T00:28:40;4.80;99.90
26745;DHT22;14342;50.960;13.880;2023-02-28T00:29:41;4.70;99.90
26745;DHT22;14342;50.960;13.880;2023-02-28T00:30:42;4.70;99.90
26745;DHT22;14342;50.960;13.880;2023-02-28T00:31:43;4.60;99.90
26745;DHT22;14342;50.960;13.880;2023-02-28T00:32:44;4.50;99.90
26745;DHT22;14342;50.960;13.880;2023-02-28T00:33:45;4.80;99.90
26745;DHT22;14342;50.960;13.880;2023-02-28T00:34:46;4.60;99.90
26745;DHT22;14342;50.960;13.880;2023-02-28T00:35:47;4.70;99.90
26745;DHT22;14342;50.960;13.880;2023-02-28T00:36:49;4.70;99.90
26745;DHT22;14342;50.960;13.880;2023-02-28T00:37:50;4.70;99.90
26745;DHT22;14342;50.960;13.880;2023-02-28T00:38:52;4.80;99.90
26745;DHT22;14342;50.960;13.880;2023-02-28T00:39:52;4.80;99.90
26745;DHT22;14342;50.960;13.880;2023-02-28T00:40:54;4.90;99.90
26745;DHT22;14342;50.960;13.880;2023-02-28T00:41:54;4.90;99.90
26745;DHT22;14342;50.960;13.880;2023-02-28T00:42:56;5.00;99.90
26745;DHT22;14342;50.960;13.880;2023-02-28T00:43:56;5.00;99.90
26745;DHT22;14342;50.960;13.880;2023-02-28T00:44:58;5.00;99.90
26745;DHT22;14342;50.960;13.880;2023-02-28T00:45:58;5.20;99.90
26745;DHT22;14342;50.960;13.880;2023-02-28T00:47:00;5.00;99.90
26745;DHT22;14342;50.960;13.880;2023-02-28T00:48:00;5.00;99.90
26745;DHT22;14342;50.960;13.880;2023-02-28T00:49:02;5.00;99.90
26745;DHT22;14342;50.960;13.880;2023-02-28T00:50:03;5.00;99.90
26745;DHT22;14342;50.960;13.880;2023-02-28T00:51:05;5.00;99.90
26745;DHT22;14342;50.960;13.880;2023-02-28T00:52:05;5.10;99.90
26745;DHT22;14342;50.960;13.880;2023-02-28T00:53:08;5.10;99.90
26745;DHT22;14342;50.960;13.880;2023-02-28T00:54:09;5.10;99.90
26745;DHT22;14342;50.960;13.880;2023-02-28T00:55:10;5.10;99.90
26745;DHT22;14342;50.960;13.880;2023-02-28T00:56:11;5.10;99.90
26745;DHT22;14342;50.960;13.880;2023-02-28T00:57:13;5.10;99.90
26745;DHT22;14342;50.960;13.880;2023-02-28T00:58:14;5.30;99.90
26745;DHT22;14342;50.960;13.880;2023-02-28T01:00:53;5.10;99.90
26745;DHT22;14342;50.960;13.880;2023-02-28T01:01:55;5.10;99.90
26745;DHT22;14342;50.960;13.880;2023-02-28T01:02:55;4.80;99.90
26745;DHT22;14342;50.960;13.880;2023-02-28T01:03:57;4.40;99.90
26745;DHT22;14342;50.960;13.880;2023-02-28T01:04:57;4.20;99.90
26745;DHT22;14342;50.960;13.880;2023-02-28T01:05:59;4.20;99.90
26745;DHT22;14342;50.960;13.880;2023-02-28T01:06:59;4.10;99.90
26745;DHT22;14342;50.960;13.880;2023-02-28T01:08:01;4.20;99.90
26745;DHT22;14342;50.960;13.880;2023-02-28T01:09:03;4.40;99.90
26745;DHT22;14342;50.960;13.880;2023-02-28T01:10:05;4.50;99.90
26745;DHT22;14342;50.960;13.880;2023-02-28T01:11:07;4.40;99.90
26745;DHT22;14342;50.960;13.880;2023-02-28T01:12:09;4.20;99.90
26745;DHT22;14342;50.960;13.880;2023-02-28T01:13:10;4.10;99.90
26745;DHT22;14342;50.960;13.880;2023-02-28T01:14:12;4.20;99.90
26745;DHT22;14342;50.960;13.880;2023-02-28T01:15:13;4.30;99.90
26745;DHT22;14342;50.960;13.880;2023-02-28T01:16:15;4.30;99.90
26745;DHT22;14342;50.960;13.880;2023-02-28T01:17:15;4.40;99.90
26745;DHT22;14342;50.960;13.880;2023-02-28T01:18:17;4.40;99.90
26745;DHT22;14342;50.960;13.880;2023-02-28T01:19:17;4.50;99.90
26745;DHT22;14342;50.960;13.880;2023-02-28T01:20:19;4.60;99.90
26745;DHT22;14342;50.960;13.880;2023-02-28T01:21:20;4.70;99.90
26745;DHT22;14342;50.960;13.880;2023-02-28T01:22:22;4.70;99.90
26745;DHT22;14342;50.960;13.880;2023-02-28T01:23:22;4.70;99.90
26745;DHT22;14342;50.960;13.880;2023-02-28T01:24:25;4.80;99.90
26745;DHT22;14342;50.960;13.880;2023-02-28T01:25:26;4.80;99.90
26745;DHT22;14342;50.960;13.880;2023-02-28T01:26:27;4.70;99.90
26745;DHT22;14342;50.960;13.880;2023-02-28T01:27:28;4.70;99.90
26745;DHT22;14342;50.960;13.880;2023-02-28T01:28:29;4.70;99.90
26745;DHT22;14342;50.960;13.880;2023-02-28T01:29:30;4.80;99.90
26745;DHT22;14342;50.960;13.880;2023-02-28T01:30:32;4.80;99.90
26745;DHT22;14342;50.960;13.880;2023-02-28T01:31:32;4.80;99.90
26745;DHT22;14342;50.960;13.880;2023-02-28T01:32:34;4.90;99.90
26745;DHT22;14342;50.960;13.880;2023-02-28T01:33:35;4.90;99.90
26745;DHT22;14342;50.960;13.880;2023-02-28T01:34:36;4.90;99.90
26745;DHT22;14342;50.960;13.880;2023-02-28T01:35:37;4.90;99.90
26745;DHT22;14342;50.960;13.880;2023-02-28T01:36:38;4.90;99.90
26745;DHT22;14342;50.960;13.880;2023-02-28T01:37:39;4.90;99.90
26745;DHT22;14342;50.960;13.880;2023-02-28T01:38:41;4.90;99.90
26745;DHT22;14342;50.960;13.880;2023-02-28T01:39:43;4.90;99.90
26745;DHT22;14342;50.960;13.880;2023-02-28T01:40:45;5.00;99.90
26745;DHT22;14342;50.960;13.880;2023-02-28T01:41:46;5.00;99.90
26745;DHT22;14342;50.960;13.880;2023-02-28T01:42:47;5.00;99.90
26745;DHT22;14342;50.960;13.880;2023-02-28T01:43:56;5.00;99.90
26745;DHT22;14342;50.960;13.880;2023-02-28T01:44:59;5.00;99.90
26745;DHT22;14342;50.960;13.880;2023-02-28T01:46:00;5.00;99.90
26745;DHT22;14342;50.960;13.880;2023-02-28T01:47:02;5.00;99.90
26745;DHT22;14342;50.960;13.880;2023-02-28T01:48:04;5.40;99.90
26745;DHT22;14342;50.960;13.880;2023-02-28T01:49:08;5.10;99.90
26745;DHT22;14342;50.960;13.880;2023-02-28T01:50:11;5.30;99.90
26745;DHT22;14342;50.960;13.880;2023-02-28T01:51:15;5.10;99.90
26745;DHT22;14342;50.960;13.880;2023-02-28T01:52:17;5.10;99.90
26745;DHT22;14342;50.960;13.880;2023-02-28T01:53:21;5.10;99.90
26745;DHT22;14342;50.960;13.880;2023-02-28T01:54:24;5.00;99.90
26745;DHT22;14342;50.960;13.880;2023-02-28T01:55:28;5.00;99.90
26745;DHT22;14342;50.960;13.880;2023-02-28T01:56:30;5.10;99.90
26745;DHT22;14342;50.960;13.880;2023-02-28T01:57:34;5.00;99.90
26745;DHT22;14342;50.960;13.880;2023-02-28T01:58:37;5.00;99.90
26745;DHT22;14342;50.960;13.880;2023-02-28T01:59:40;5.00;99.90
26745;DHT22;14342;50.960;13.880;2023-02-28T02:00:45;5.00;99.90
26745;DHT22;14342;50.960;13.880;2023-02-28T02:01:46;5.00;99.90
26745;DHT22;14342;50.960;13.880;2023-02-28T02:02:49;4.90;99.90
26745;DHT22;14342;50.960;13.880;2023-02-28T02:03:53;4.90;99.90
26745;DHT22;14342;50.960;13.880;2023-02-28T02:04:56;5.00;99.90
26745;DHT22;14342;50.960;13.880;2023-02-28T02:05:58;5.00;99.90
26745;DHT22;14342;50.960;13.880;2023-02-28T02:06:59;5.00;99.90
26745;DHT22;14342;50.960;13.880;2023-02-28T02:08:01;5.00;99.90
26745;DHT22;14342;50.960;13.880;2023-02-28T02:09:02;5.00;99.90
26745;DHT22;14342;50.960;13.880;2023-02-28T02:10:06;5.00;99.90
26745;DHT22;14342;50.960;13.880;2023-02-28T02:11:12;5.00;99.90
26745;DHT22;14342;50.960;13.880;2023-02-28T02:12:17;5.00;99.90
26745;DHT22;14342;50.960;13.880;2023-02-28T02:13:25;4.90;99.90
26745;DHT22;14342;50.960;13.880;2023-02-28T02:14:39;4.90;99.90
26745;DHT22;14342;50.960;13.880;2023-02-28T02:15:44;4.90;99.90
26745;DHT22;14342;50.960;13.880;2023-02-28T02:16:52;4.90;99.90
26745;DHT22;14342;50.960;13.880;2023-02-28T02:17:56;4.90;99.90
26745;DHT22;14342;50.960;13.880;2023-02-28T02:19:00;4.90;99.90
26745;DHT22;14342;50.960;13.880;2023-02-28T02:21:40;4.80;99.90
26745;DHT22;14342;50.960;13.880;2023-02-28T02:22:49;4.70;99.90
26745;DHT22;14342;50.960;13.880;2023-02-28T02:25:20;4.70;99.90
26745;DHT22;14342;50.960;13.880;2023-02-28T02:26:33;4.80;99.90
26745;DHT22;14342;50.960;13.880;2023-02-28T02:27:46;4.70;99.90
26745;DHT22;14342;50.960;13.880;2023-02-28T02:28:58;4.70;99.90
26745;DHT22;14342;50.960;13.880;2023-02-28T02:30:08;4.70;99.90
26745;DHT22;14342;50.960;13.880;2023-02-28T02:31:26;4.70;99.90
26745;DHT22;14342;50.960;13.880;2023-02-28T02:32:41;4.70;99.90
26745;DHT22;14342;50.960;13.880;2023-02-28T02:34:02;4.70;99.90
26745;DHT22;14342;50.960;13.880;2023-02-28T02:35:07;4.80;99.90
26745;DHT22;14342;50.960;13.880;2023-02-28T02:36:12;4.70;99.90
26745;DHT22;14342;50.960;13.880;2023-02-28T02:37:15;4.70;99.90
26745;DHT22;14342;50.960;13.880;2023-02-28T02:38:19;4.80;99.90
26745;DHT22;14342;50.960;13.880;2023-02-28T02:39:27;4.80;99.90
26745;DHT22;14342;50.960;13.880;2023-02-28T02:40:32;4.80;99.90
26745;DHT22;14342;50.960;13.880;2023-02-28T02:41:36;4.80;99.90
26745;DHT22;14342;50.960;13.880;2023-02-28T02:42:41;4.80;99.90
26745;DHT22;14342;50.960;13.880;2023-02-28T02:43:44;4.90;99.90
26745;DHT22;14342;50.960;13.880;2023-02-28T02:44:48;4.80;99.90
26745;DHT22;14342;50.960;13.880;2023-02-28T02:45:51;4.80;99.90
26745;DHT22;14342;50.960;13.880;2023-02-28T02:46:54;4.80;99.90
26745;DHT22;14342;50.960;13.880;2023-02-28T02:47:57;4.80;99.90
26745;DHT22;14342;50.960;13.880;2023-02-28T02:49:02;4.80;99.90
26745;DHT22;14342;50.960;13.880;2023-02-28T02:50:04;4.80;99.90
26745;DHT22;14342;50.960;13.880;2023-02-28T02:51:09;4.80;99.90
26745;DHT22;14342;50.960;13.880;2023-02-28T02:52:12;4.80;99.90
26745;DHT22;14342;50.960;13.880;2023-02-28T02:53:16;4.80;99.90
26745;DHT22;14342;50.960;13.880;2023-02-28T02:54:19;4.70;99.90
26745;DHT22;14342;50.960;13.880;2023-02-28T02:55:21;4.70;99.90
26745;DHT22;14342;50.960;13.880;2023-02-28T02:56:26;4.70;99.90
26745;DHT22;14342;50.960;13.880;2023-02-28T02:57:29;4.80;99.90
26745;DHT22;14342;50.960;13.880;2023-02-28T02:58:33;4.70;99.90
26745;DHT22;14342;50.960;13.880;2023-02-28T02:59:37;4.60;99.90
26745;DHT22;14342;50.960;13.880;2023-02-28T03:00:39;4.60;99.90
26745;DHT22;14342;50.960;13.880;2023-02-28T03:01:42;4.50;99.90
26745;DHT22;14342;50.960;13.880;2023-02-28T03:02:43;4.50;99.90
26745;DHT22;14342;50.960;13.880;2023-02-28T03:03:45;4.50;99.90
26745;DHT22;14342;50.960;13.880;2023-02-28T03:04:48;4.50;99.90
26745;DHT22;14342;50.960;13.880;2023-02-28T03:05:51;4.50;99.90
26745;DHT22;14342;50.960;13.880;2023-02-28T03:06:53;4.50;99.90
26745;DHT22;14342;50.960;13.880;2023-02-28T03:07:55;4.40;99.90
26745;DHT22;14342;50.960;13.880;2023-02-28T03:08:56;4.50;99.90
26745;DHT22;14342;50.960;13.880;2023-02-28T03:09:57;4.50;99.90
26745;DHT22;14342;50.960;13.880;2023-02-28T03:10:59;4.40;99.90
26745;DHT22;14342;50.960;13.880;2023-02-28T03:12:00;4.40;99.90
26745;DHT22;14342;50.960;13.880;2023-02-28T03:13:11;4.40;99.90
26745;DHT22;14342;50.960;13.880;2023-02-28T03:14:18;4.50;99.90
26745;DHT22;14342;50.960;13.880;2023-02-28T03:15:23;4.50;99.90
26745;DHT22;14342;50.960;13.880;2023-02-28T03:16:29;4.60;99.90
26745;DHT22;14342;50.960;13.880;2023-02-28T03:17:51;4.60;99.90
26745;DHT22;14342;50.960;13.880;2023-02-28T03:18:54;4.60;99.90
26745;DHT22;14342;50.960;13.880;2023-02-28T03:20:06;4.50;99.90
26745;DHT22;14342;50.960;13.880;2023-02-28T03:21:11;4.50;99.90
26745;DHT22;14342;50.960;13.880;2023-02-28T03:22:21;4.50;99.90
26745;DHT22;14342;50.960;13.880;2023-02-28T03:23:27;4.50;99.90
26745;DHT22;14342;50.960;13.880;2023-02-28T03:24:32;4.50;99.90
26745;DHT22;14342;50.960;13.880;2023-02-28T03:25:37;4.60;99.90
26745;DHT22;14342;50.960;13.880;2023-02-28T03:26:41;4.60;99.90
26745;DHT22;14342;50.960;13.880;2023-02-28T03:27:45;4.60;99.90
26745;DHT22;14342;50.960;13.880;2023-02-28T03:28:52;4.50;99.90
26745;DHT22;14342;50.960;13.880;2023-02-28T03:29:56;4.60;99.90
26745;DHT22;14342;50.960;13.880;2023-02-28T03:30:59;4.50;99.90
26745;DHT22;14342;50.960;13.880;2023-02-28T03:32:03;4.80;99.90
26745;DHT22;14342;50.960;13.880;2023-02-28T03:33:06;4.50;99.90
26745;DHT22;14342;50.960;13.880;2023-02-28T03:34:10;4.50;99.90
26745;DHT22;14342;50.960;13.880;2023-02-28T03:35:14;4.50;99.90
26745;DHT22;14342;50.960;13.880;2023-02-28T03:36:22;4.50;99.90
26745;DHT22;14342;50.960;13.880;2023-02-28T03:37:24;4.40;99.90
26745;DHT22;14342;50.960;13.880;2023-02-28T03:38:27;4.40;99.90
26745;DHT22;14342;50.960;13.880;2023-02-28T03:39:31;4.40;99.90
26745;DHT22;14342;50.960;13.880;2023-02-28T03:40:35;4.40;99.90
26745;DHT22;14342;50.960;13.880;2023-02-28T03:41:38;4.40;99.90
26745;DHT22;14342;50.960;13.880;2023-02-28T03:42:41;4.40;99.90
26745;DHT22;14342;50.960;13.880;2023-02-28T03:43:43;4.40;99.90
26745;DHT22;14342;50.960;13.880;2023-02-28T03:44:47;4.40;99.90
26745;DHT22;14342;50.960;13.880;2023-02-28T03:45:49;4.40;99.90
26745;DHT22;14342;50.960;13.880;2023-02-28T03:46:52;4.40;99.90
26745;DHT22;14342;50.960;13.880;2023-02-28T03:47:55;4.40;99.90
26745;DHT22;14342;50.960;13.880;2023-02-28T03:49:00;4.40;99.90
26745;DHT22;14342;50.960;13.880;2023-02-28T03:50:03;4.40;99.90
26745;DHT22;14342;50.960;13.880;2023-02-28T03:51:08;4.40;99.90
26745;DHT22;14342;50.960;13.880;2023-02-28T03:52:10;4.40;99.90
26745;DHT22;14342;50.960;13.880;2023-02-28T03:53:14;4.40;99.90
26745;DHT22;14342;50.960;13.880;2023-02-28T03:54:16;4.30;99.90
26745;DHT22;14342;50.960;13.880;2023-02-28T03:55:20;4.40;99.90
26745;DHT22;14342;50.960;13.880;2023-02-28T03:56:22;4.30;99.90
26745;DHT22;14342;50.960;13.880;2023-02-28T03:57:26;4.30;99.90
26745;DHT22;14342;50.960;13.880;2023-02-28T03:58:29;4.30;99.90
26745;DHT22;14342;50.960;13.880;2023-02-28T03:59:32;4.30;99.90
26745;DHT22;14342;50.960;13.880;2023-02-28T04:00:35;4.30;99.90
26745;DHT22;14342;50.960;13.880;2023-02-28T04:01:39;4.30;99.90
26745;DHT22;14342;50.960;13.880;2023-02-28T04:02:41;4.30;99.90
26745;DHT22;14342;50.960;13.880;2023-02-28T04:03:43;4.30;99.90
26745;DHT22;14342;50.960;13.880;2023-02-28T04:04:43;4.30;99.90
26745;DHT22;14342;50.960;13.880;2023-02-28T04:05:50;4.20;99.90
26745;DHT22;14342;50.960;13.880;2023-02-28T04:06:52;4.20;99.90
26745;DHT22;14342;50.960;13.880;2023-02-28T04:07:54;4.20;99.90
26745;DHT22;14342;50.960;13.880;2023-02-28T04:08:54;4.20;99.90
26745;DHT22;14342;50.960;13.880;2023-02-28T04:09:56;4.10;99.90
26745;DHT22;14342;50.960;13.880;2023-02-28T04:10:58;4.10;99.90
26745;DHT22;14342;50.960;13.880;2023-02-28T04:12:00;4.10;99.90
26745;DHT22;14342;50.960;13.880;2023-02-28T04:13:00;4.10;99.90
26745;DHT22;14342;50.960;13.880;2023-02-28T04:14:02;4.00;99.90
26745;DHT22;14342;50.960;13.880;2023-02-28T04:15:04;4.00;99.90
26745;DHT22;14342;50.960;13.880;2023-02-28T04:16:06;4.00;99.90
26745;DHT22;14342;50.960;13.880;2023-02-28T04:17:12;4.00;99.90
26745;DHT22;14342;50.960;13.880;2023-02-28T04:18:13;4.00;99.90
26745;DHT22;14342;50.960;13.880;2023-02-28T04:19:14;4.00;99.90
26745;DHT22;14342;50.960;13.880;2023-02-28T04:20:15;3.90;99.90
26745;DHT22;14342;50.960;13.880;2023-02-28T04:21:16;3.90;99.90
26745;DHT22;14342;50.960;13.880;2023-02-28T04:22:22;3.90;99.90
26745;DHT22;14342;50.960;13.880;2023-02-28T04:23:26;4.00;99.90
26745;DHT22;14342;50.960;13.880;2023-02-28T04:24:27;3.80;99.90
26745;DHT22;14342;50.960;13.880;2023-02-28T04:25:29;3.80;99.90
26745;DHT22;14342;50.960;13.880;2023-02-28T04:26:29;3.80;99.90
26745;DHT22;14342;50.960;13.880;2023-02-28T04:27:39;3.80;99.90
26745;DHT22;14342;50.960;13.880;2023-02-28T04:28:40;3.80;99.90
26745;DHT22;14342;50.960;13.880;2023-02-28T04:29:41;3.80;99.90
26745;DHT22;14342;50.960;13.880;2023-02-28T04:30:44;3.80;99.90
26745;DHT22;14342;50.960;13.880;2023-02-28T04:31:45;3.70;99.90
26745;DHT22;14342;50.960;13.880;2023-02-28T04:32:46;3.60;99.90
26745;DHT22;14342;50.960;13.880;2023-02-28T04:33:47;3.60;99.90
26745;DHT22;14342;50.960;13.880;2023-02-28T04:34:48;3.70;99.90
26745;DHT22;14342;50.960;13.880;2023-02-28T04:35:57;3.60;99.90
26745;DHT22;14342;50.960;13.880;2023-02-28T04:36:58;3.60;99.90
26745;DHT22;14342;50.960;13.880;2023-02-28T04:38:02;3.50;99.90
26745;DHT22;14342;50.960;13.880;2023-02-28T04:39:02;3.60;99.90
26745;DHT22;14342;50.960;13.880;2023-02-28T04:40:04;3.60;99.90
26745;DHT22;14342;50.960;13.880;2023-02-28T04:41:05;3.60;99.90
26745;DHT22;14342;50.960;13.880;2023-02-28T04:42:07;3.50;99.90
26745;DHT22;14342;50.960;13.880;2023-02-28T04:43:08;3.50;99.90
26745;DHT22;14342;50.960;13.880;2023-02-28T04:44:09;3.60;99.90
26745;DHT22;14342;50.960;13.880;2023-02-28T04:45:10;3.50;99.90
26745;DHT22;14342;50.960;13.880;2023-02-28T04:46:11;3.50;99.90
26745;DHT22;14342;50.960;13.880;2023-02-28T04:47:12;3.50;99.90
26745;DHT22;14342;50.960;13.880;2023-02-28T04:48:13;3.50;99.90
26745;DHT22;14342;50.960;13.880;2023-02-28T04:49:14;3.50;99.90
26745;DHT22;14342;50.960;13.880;2023-02-28T04:50:16;3.40;99.90
26745;DHT22;14342;50.960;13.880;2023-02-28T04:51:17;3.30;99.90
26745;DHT22;14342;50.960;13.880;2023-02-28T04:52:19;3.40;99.90
26745;DHT22;14342;50.960;13.880;2023-02-28T04:53:21;3.30;99.90
26745;DHT22;14342;50.960;13.880;2023-02-28T04:54:22;3.30;99.90
26745;DHT22;14342;50.960;13.880;2023-02-28T04:55:23;3.40;99.90
26745;DHT22;14342;50.960;13.880;2023-02-28T04:56:24;3.30;99.90
26745;DHT22;14342;50.960;13.880;2023-02-28T04:57:25;3.30;99.90
26745;DHT22;14342;50.960;13.880;2023-02-28T04:58:27;3.20;99.90
26745;DHT22;14342;50.960;13.880;2023-02-28T04:59:28;3.20;99.90
26745;DHT22;14342;50.960;13.880;2023-02-28T05:00:29;3.30;99.90
26745;DHT22;14342;50.960;13.880;2023-02-28T05:01:31;3.30;99.90
26745;DHT22;14342;50.960;13.880;2023-02-28T05:02:33;3.30;99.90
26745;DHT22;14342;50.960;13.880;2023-02-28T05:03:34;3.30;99.90
26745;DHT22;14342;50.960;13.880;2023-02-28T05:04:36;3.30;99.90
26745;DHT22;14342;50.960;13.880;2023-02-28T05:05:36;3.20;99.90
26745;DHT22;14342;50.960;13.880;2023-02-28T05:06:38;3.20;99.90
26745;DHT22;14342;50.960;13.880;2023-02-28T05:07:39;3.40;99.90
26745;DHT22;14342;50.960;13.880;2023-02-28T05:08:42;3.20;99.90
26745;DHT22;14342;50.960;13.880;2023-02-28T05:09:42;3.20;99.90
26745;DHT22;14342;50.960;13.880;2023-02-28T05:10:44;3.20;99.90
26745;DHT22;14342;50.960;13.880;2023-02-28T05:11:44;3.20;99.90
26745;DHT22;14342;50.960;13.880;2023-02-28T05:12:46;3.40;99.90
26745;DHT22;14342;50.960;13.880;2023-02-28T05:13:48;3.20;99.90
26745;DHT22;14342;50.960;13.880;2023-02-28T05:14:50;3.20;99.90
26745;DHT22;14342;50.960;13.880;2023-02-28T05:15:50;3.10;99.90
26745;DHT22;14342;50.960;13.880;2023-02-28T05:16:52;3.10;99.90
26745;DHT22;14342;50.960;13.880;2023-02-28T05:17:53;3.00;99.90
26745;DHT22;14342;50.960;13.880;2023-02-28T05:18:54;3.00;99.90
26745;DHT22;14342;50.960;13.880;2023-02-28T05:19:55;2.90;99.90
26745;DHT22;14342;50.960;13.880;2023-02-28T05:20:56;3.00;99.90
26745;DHT22;14342;50.960;13.880;2023-02-28T05:21:57;2.80;99.90
26745;DHT22;14342;50.960;13.880;2023-02-28T05:22:59;2.70;99.90
26745;DHT22;14342;50.960;13.880;2023-02-28T05:24:02;2.70;99.90
26745;DHT22;14342;50.960;13.880;2023-02-28T05:25:04;2.70;99.90
26745;DHT22;14342;50.960;13.880;2023-02-28T05:26:05;2.70;99.90
26745;DHT22;14342;50.960;13.880;2023-02-28T05:27:07;2.80;99.90
26745;DHT22;14342;50.960;13.880;2023-02-28T05:28:08;2.80;99.90
26745;DHT22;14342;50.960;13.880;2023-02-28T05:29:09;2.80;99.90
26745;DHT22;14342;50.960;13.880;2023-02-28T05:30:10;2.70;99.90
26745;DHT22;14342;50.960;13.880;2023-02-28T05:31:12;2.60;99.90
26745;DHT22;14342;50.960;13.880;2023-02-28T05:32:13;2.50;99.90
26745;DHT22;14342;50.960;13.880;2023-02-28T05:33:15;2.50;99.90
26745;DHT22;14342;50.960;13.880;2023-02-28T05:34:15;2.50;99.90
26745;DHT22;14342;50.960;13.880;2023-02-28T05:35:17;2.60;99.90
26745;DHT22;14342;50.960;13.880;2023-02-28T05:36:17;2.60;99.90
26745;DHT22;14342;50.960;13.880;2023-02-28T05:37:19;2.60;99.90
26745;DHT22;14342;50.960;13.880;2023-02-28T05:38:20;2.50;99.90
26745;DHT22;14342;50.960;13.880;2023-02-28T05:39:22;2.30;99.90
26745;DHT22;14342;50.960;13.880;2023-02-28T05:40:23;2.10;99.90
26745;DHT22;14342;50.960;13.880;2023-02-28T05:41:24;1.90;99.90
26745;DHT22;14342;50.960;13.880;2023-02-28T05:42:26;1.80;99.90
26745;DHT22;14342;50.960;13.880;2023-02-28T05:43:27;1.70;99.90
26745;DHT22;14342;50.960;13.880;2023-02-28T05:44:28;1.60;99.90
26745;DHT22;14342;50.960;13.880;2023-02-28T05:45:29;1.50;99.90
26745;DHT22;14342;50.960;13.880;2023-02-28T05:46:30;1.50;99.90
26745;DHT22;14342;50.960;13.880;2023-02-28T05:47:32;1.60;99.90
26745;DHT22;14342;50.960;13.880;2023-02-28T05:48:32;1.60;99.90
26745;DHT22;14342;50.960;13.880;2023-02-28T05:49:34;1.30;99.90
26745;DHT22;14342;50.960;13.880;2023-02-28T05:50:35;1.20;99.90
26745;DHT22;14342;50.960;13.880;2023-02-28T05:51:37;1.20;99.90
26745;DHT22;14342;50.960;13.880;2023-02-28T05:52:40;1.10;99.90
26745;DHT22;14342;50.960;13.880;2023-02-28T05:53:41;1.00;99.90
26745;DHT22;14342;50.960;13.880;2023-02-28T05:54:44;0.80;99.90
26745;DHT22;14342;50.960;13.880;2023-02-28T05:55:47;0.70;99.90
26745;DHT22;14342;50.960;13.880;2023-02-28T05:56:48;0.80;99.90
26745;DHT22;14342;50.960;13.880;2023-02-28T05:57:52;0.80;99.90
26745;DHT22;14342;50.960;13.880;2023-02-28T05:58:52;0.50;99.90
26745;DHT22;14342;50.960;13.880;2023-02-28T05:59:54;0.50;99.90
26745;DHT22;14342;50.960;13.880;2023-02-28T06:00:55;0.50;99.90
26745;DHT22;14342;50.960;13.880;2023-02-28T06:01:56;0.70;99.90
26745;DHT22;14342;50.960;13.880;2023-02-28T06:02:57;0.60;99.90
26745;DHT22;14342;50.960;13.880;2023-02-28T06:04:02;0.50;99.90
26745;DHT22;14342;50.960;13.880;2023-02-28T06:05:03;0.40;99.90
26745;DHT22;14342;50.960;13.880;2023-02-28T06:06:04;0.40;99.90
26745;DHT22;14342;50.960;13.880;2023-02-28T06:07:05;0.40;99.90
26745;DHT22;14342;50.960;13.880;2023-02-28T06:08:06;0.50;99.90
26745;DHT22;14342;50.960;13.880;2023-02-28T06:09:08;0.60;99.90
26745;DHT22;14342;50.960;13.880;2023-02-28T06:10:11;0.70;99.90
26745;DHT22;14342;50.960;13.880;2023-02-28T06:11:12;0.80;99.90
26745;DHT22;14342;50.960;13.880;2023-02-28T06:12:15;0.80;99.90
26745;DHT22;14342;50.960;13.880;2023-02-28T06:13:15;0.90;99.90
26745;DHT22;14342;50.960;13.880;2023-02-28T06:14:18;1.00;99.90
26745;DHT22;14342;50.960;13.880;2023-02-28T06:15:19;1.40;99.90
26745;DHT22;14342;50.960;13.880;2023-02-28T06:16:21;1.30;99.90
26745;DHT22;14342;50.960;13.880;2023-02-28T06:17:22;1.50;99.90
26745;DHT22;14342;50.960;13.880;2023-02-28T06:18:23;1.60;99.90
26745;DHT22;14342;50.960;13.880;2023-02-28T06:19:24;1.70;99.90
26745;DHT22;14342;50.960;13.880;2023-02-28T06:20:26;1.90;99.90
26745;DHT22;14342;50.960;13.880;2023-02-28T06:21:29;1.90;99.90
26745;DHT22;14342;50.960;13.880;2023-02-28T06:22:31;2.00;99.90
26745;DHT22;14342;50.960;13.880;2023-02-28T06:23:31;1.90;99.90
26745;DHT22;14342;50.960;13.880;2023-02-28T06:24:33;2.00;99.90
26745;DHT22;14342;50.960;13.880;2023-02-28T06:25:35;2.10;99.90
26745;DHT22;14342;50.960;13.880;2023-02-28T06:26:36;2.20;99.90
26745;DHT22;14342;50.960;13.880;2023-02-28T06:27:37;2.20;99.90
26745;DHT22;14342;50.960;13.880;2023-02-28T06:28:39;2.20;99.90
26745;DHT22;14342;50.960;13.880;2023-02-28T06:29:39;2.30;99.90
26745;DHT22;14342;50.960;13.880;2023-02-28T06:30:41;2.60;99.90
26745;DHT22;14342;50.960;13.880;2023-02-28T06:31:41;2.20;99.90
26745;DHT22;14342;50.960;13.880;2023-02-28T06:32:44;2.20;99.90
26745;DHT22;14342;50.960;13.880;2023-02-28T06:33:44;1.90;99.90
26745;DHT22;14342;50.960;13.880;2023-02-28T06:34:46;1.90;99.90
26745;DHT22;14342;50.960;13.880;2023-02-28T06:35:47;1.70;99.90
26745;DHT22;14342;50.960;13.880;2023-02-28T06:36:51;1.70;99.90
26745;DHT22;14342;50.960;13.880;2023-02-28T06:37:51;1.70;99.90
26745;DHT22;14342;50.960;13.880;2023-02-28T06:38:53;1.80;99.90
26745;DHT22;14342;50.960;13.880;2023-02-28T06:39:56;1.90;99.90